sensor_id;sensor_type;location;lat;lon;timestamp;temperature;humidity
3976;DHT22;2002;48.812;9.180;2022-12-29T00:01:14;16.20;1.00
3976;DHT22;2002;48.812;9.180;2022-12-29T00:03:39;16.40;1.00
3976;DHT22;2002;48.812;9.180;2022-12-29T00:06:05;16.60;1.00
3976;DHT22;2002;48.812;9.180;2022-12-29T00:08:30;16.70;1.00
3976;DHT22;2002;48.812;9.180;2022-12-29T00:11:13;16.80;1.00
3976;DHT22;2002;48.812;9.180;2022-12-29T00:13:39;16.80;1.00
3976;DHT22;2002;48.812;9.180;2022-12-29T00:16:23;16.80;1.00
3976;DHT22;2002;48.812;9.180;2022-12-29T00:18:49;16.70;1.00
3976;DHT22;2002;48.812;9.180;2022-12-29T00:21:16;16.70;1.00
3976;DHT22;2002;48.812;9.180;2022-12-29T00:24:01;16.70;1.00
3976;DHT22;2002;48.812;9.180;2022-12-29T00:26:48;16.60;1.00
3976;DHT22;2002;48.812;9.180;2022-12-29T00:29:33;16.60;1.00
3976;DHT22;2002;48.812;9.180;2022-12-29T00:32:17;16.60;1.00
3976;DHT22;2002;48.812;9.180;2022-12-29T00:35:01;16.50;1.00
3976;DHT22;2002;48.812;9.180;2022-12-29T00:37:41;16.50;1.00
3976;DHT22;2002;48.812;9.180;2022-12-29T00:40:26;16.40;1.00
3976;DHT22;2002;48.812;9.180;2022-12-29T00:43:10;16.40;1.00
3976;DHT22;2002;48.812;9.180;2022-12-29T00:45:54;16.40;1.00
3976;DHT22;2002;48.812;9.180;2022-12-29T00:48:19;16.30;1.00
3976;DHT22;2002;48.812;9.180;2022-12-29T00:51:05;16.30;1.00
3976;DHT22;2002;48.812;9.180;2022-12-29T00:53:32;16.40;1.00
3976;DHT22;2002;48.812;9.180;2022-12-29T00:55:57;16.30;1.00
3976;DHT22;2002;48.812;9.180;2022-12-29T00:58:23;16.30;1.00
3976;DHT22;2002;48.812;9.180;2022-12-29T01:00:48;16.30;1.00
3976;DHT22;2002;48.812;9.180;2022-12-29T01:03:14;16.30;1.00
3976;DHT22;2002;48.812;9.180;2022-12-29T01:05:39;16.30;1.00
3976;DHT22;2002;48.812;9.180;2022-12-29T01:08:05;16.20;1.00
3976;DHT22;2002;48.812;9.180;2022-12-29T01:10:31;16.20;1.00
3976;DHT22;2002;48.812;9.180;2022-12-29T01:12:56;16.20;1.00
3976;DHT22;2002;48.812;9.180;2022-12-29T01:15:22;16.20;1.00
3976;DHT22;2002;48.812;9.180;2022-12-29T01:17:47;16.20;1.00
3976;DHT22;2002;48.812;9.180;2022-12-29T01:20:13;16.20;1.00
3976;DHT22;2002;48.812;9.180;2022-12-29T01:22:39;16.20;1.00
3976;DHT22;2002;48.812;9.180;2022-12-29T01:25:05;16.20;1.00
3976;DHT22;2002;48.812;9.180;2022-12-29T01:27:31;16.20;1.00
3976;DHT22;2002;48.812;9.180;2022-12-29T01:29:57;16.20;1.00
3976;DHT22;2002;48.812;9.180;2022-12-29T01:32:22;16.10;1.00
3976;DHT22;2002;48.812;9.180;2022-12-29T01:34:48;16.10;1.00
3976;DHT22;2002;48.812;9.180;2022-12-29T01:37:14;16.20;1.00
3976;DHT22;2002;48.812;9.180;2022-12-29T01:39:39;16.20;1.00
3976;DHT22;2002;48.812;9.180;2022-12-29T01:42:05;16.40;1.00
3976;DHT22;2002;48.812;9.180;2022-12-29T01:44:53;16.50;1.00
3976;DHT22;2002;48.812;9.180;2022-12-29T01:47:26;16.60;1.00
3976;DHT22;2002;48.812;9.180;2022-12-29T01:49:56;16.70;1.00
3976;DHT22;2002;48.812;9.180;2022-12-29T01:52:24;16.60;1.00
3976;DHT22;2002;48.812;9.180;2022-12-29T01:54:53;16.60;1.00
3976;DHT22;2002;48.812;9.180;2022-12-29T01:57:24;16.60;1.00
3976;DHT22;2002;48.812;9.180;2022-12-29T01:59:56;16.50;1.00
3976;DHT22;2002;48.812;9.180;2022-12-29T02:02:24;16.50;1.00
3976;DHT22;2002;48.812;9.180;2022-12-29T02:04:51;16.50;1.00
3976;DHT22;2002;48.812;9.180;2022-12-29T02:07:20;16.50;1.00
3976;DHT22;2002;48.812;9.180;2022-12-29T02:09:47;16.40;1.00
3976;DHT22;2002;48.812;9.180;2022-12-29T02:12:14;16.40;1.00
3976;DHT22;2002;48.812;9.180;2022-12-29T02:14:41;16.30;1.00
3976;DHT22;2002;48.812;9.180;2022-12-29T02:17:27;16.40;1.00
3976;DHT22;2002;48.812;9.180;2022-12-29T02:31:58;16.30;1.00
3976;DHT22;2002;48.812;9.180;2022-12-29T02:39:52;16.20;1.00
3976;DHT22;2002;48.812;9.180;2022-12-29T02:42:33;16.20;1.00
3976;DHT22;2002;48.812;9.180;2022-12-29T02:45:07;16.20;1.00
3976;DHT22;2002;48.812;9.180;2022-12-29T02:47:46;16.20;1.00
3976;DHT22;2002;48.812;9.180;2022-12-29T02:50:19;16.20;1.00
3976;DHT22;2002;48.812;9.180;2022-12-29T02:52:58;16.10;1.00
3976;DHT22;2002;48.812;9.180;2022-12-29T02:55:24;16.10;1.00
3976;DHT22;2002;48.812;9.180;2022-12-29T02:58:14;16.10;1.00
3976;DHT22;2002;48.812;9.180;2022-12-29T03:00:55;16.10;1.00
3976;DHT22;2002;48.812;9.180;2022-12-29T03:15:02;16.40;1.00
3976;DHT22;2002;48.812;9.180;2022-12-29T03:17:57;16.50;1.00
3976;DHT22;2002;48.812;9.180;2022-12-29T03:20:26;16.60;1.00
3976;DHT22;2002;48.812;9.180;2022-12-29T03:22:59;16.60;1.00
3976;DHT22;2002;48.812;9.180;2022-12-29T03:25:31;16.60;1.00
3976;DHT22;2002;48.812;9.180;2022-12-29T03:28:02;16.60;1.00
3976;DHT22;2002;48.812;9.180;2022-12-29T03:30:30;16.60;1.00
3976;DHT22;2002;48.812;9.180;2022-12-29T03:33:03;16.50;1.00
3976;DHT22;2002;48.812;9.180;2022-12-29T03:35:34;16.50;1.00
3976;DHT22;2002;48.812;9.180;2022-12-29T03:38:13;16.50;1.00
3976;DHT22;2002;48.812;9.180;2022-12-29T03:40:43;16.40;1.00
3976;DHT22;2002;48.812;9.180;2022-12-29T03:43:10;16.40;1.00
3976;DHT22;2002;48.812;9.180;2022-12-29T03:45:36;16.40;1.00
3976;DHT22;2002;48.812;9.180;2022-12-29T03:48:02;16.40;1.00
3976;DHT22;2002;48.812;9.180;2022-12-29T03:50:28;16.30;1.00
3976;DHT22;2002;48.812;9.180;2022-12-29T03:52:53;16.30;1.00
3976;DHT22;2002;48.812;9.180;2022-12-29T03:55:19;16.30;1.00
3976;DHT22;2002;48.812;9.180;2022-12-29T03:57:44;16.30;1.00
3976;DHT22;2002;48.812;9.180;2022-12-29T04:00:10;16.30;1.00
3976;DHT22;2002;48.812;9.180;2022-12-29T04:02:36;16.30;1.00
3976;DHT22;2002;48.812;9.180;2022-12-29T04:05:02;16.20;1.00
3976;DHT22;2002;48.812;9.180;2022-12-29T04:07:28;16.20;1.00
3976;DHT22;2002;48.812;9.180;2022-12-29T04:09:53;16.20;1.00
3976;DHT22;2002;48.812;9.180;2022-12-29T04:12:19;16.20;1.00
3976;DHT22;2002;48.812;9.180;2022-12-29T04:14:44;16.20;1.00
3976;DHT22;2002;48.812;9.180;2022-12-29T04:17:10;16.20;1.00
3976;DHT22;2002;48.812;9.180;2022-12-29T04:19:35;16.30;1.00
3976;DHT22;2002;48.812;9.180;2022-12-29T04:22:01;16.20;1.00
3976;DHT22;2002;48.812;9.180;2022-12-29T04:24:26;16.20;1.00
3976;DHT22;2002;48.812;9.180;2022-12-29T04:26:52;16.20;1.00
3976;DHT22;2002;48.812;9.180;2022-12-29T04:29:17;16.10;1.00
3976;DHT22;2002;48.812;9.180;2022-12-29T04:31:43;16.20;1.00
3976;DHT22;2002;48.812;9.180;2022-12-29T04:34:08;16.10;1.00
3976;DHT22;2002;48.812;9.180;2022-12-29T04:36:34;16.10;1.00
3976;DHT22;2002;48.812;9.180;2022-12-29T04:38:59;16.10;1.00
3976;DHT22;2002;48.812;9.180;2022-12-29T04:41:25;16.00;1.00
3976;DHT22;2002;48.812;9.180;2022-12-29T04:43:51;16.00;1.00
3976;DHT22;2002;48.812;9.180;2022-12-29T04:46:17;16.10;1.00
3976;DHT22;2002;48.812;9.180;2022-12-29T04:48:42;16.30;1.00
3976;DHT22;2002;48.812;9.180;2022-12-29T04:51:08;16.40;1.00
3976;DHT22;2002;48.812;9.180;2022-12-29T04:53:33;16.50;1.00
3976;DHT22;2002;48.812;9.180;2022-12-29T04:55:59;16.50;1.00
3976;DHT22;2002;48.812;9.180;2022-12-29T04:58:25;16.60;1.00
3976;DHT22;2002;48.812;9.180;2022-12-29T05:00:51;16.60;1.00
3976;DHT22;2002;48.812;9.180;2022-12-29T05:03:17;16.60;1.00
3976;DHT22;2002;48.812;9.180;2022-12-29T05:05:42;16.50;1.00
3976;DHT22;2002;48.812;9.180;2022-12-29T05:08:08;16.50;1.00
3976;DHT22;2002;48.812;9.180;2022-12-29T05:10:33;16.50;1.00
3976;DHT22;2002;48.812;9.180;2022-12-29T05:12:59;16.50;1.00
3976;DHT22;2002;48.812;9.180;2022-12-29T05:15:25;16.50;1.00
3976;DHT22;2002;48.812;9.180;2022-12-29T05:17:50;16.50;1.00
3976;DHT22;2002;48.812;9.180;2022-12-29T05:20:16;16.40;1.00
3976;DHT22;2002;48.812;9.180;2022-12-29T05:22:41;16.40;1.00
3976;DHT22;2002;48.812;9.180;2022-12-29T05:25:08;16.40;1.00
3976;DHT22;2002;48.812;9.180;2022-12-29T05:27:33;16.40;1.00
3976;DHT22;2002;48.812;9.180;2022-12-29T05:29:59;16.40;1.00
3976;DHT22;2002;48.812;9.180;2022-12-29T05:32:25;16.40;1.00
3976;DHT22;2002;48.812;9.180;2022-12-29T05:34:51;16.40;1.00
3976;DHT22;2002;48.812;9.180;2022-12-29T05:37:16;16.40;1.00
3976;DHT22;2002;48.812;9.180;2022-12-29T05:39:42;16.40;1.00
3976;DHT22;2002;48.812;9.180;2022-12-29T05:42:07;16.40;1.00
3976;DHT22;2002;48.812;9.180;2022-12-29T05:44:33;16.40;1.00
3976;DHT22;2002;48.812;9.180;2022-12-29T05:46:58;16.40;1.00
3976;DHT22;2002;48.812;9.180;2022-12-29T05:49:24;16.40;1.00
3976;DHT22;2002;48.812;9.180;2022-12-29T05:51:49;16.40;1.00
3976;DHT22;2002;48.812;9.180;2022-12-29T05:54:15;16.40;1.00
3976;DHT22;2002;48.812;9.180;2022-12-29T05:56:41;16.40;1.00
3976;DHT22;2002;48.812;9.180;2022-12-29T05:59:06;16.40;1.00
3976;DHT22;2002;48.812;9.180;2022-12-29T06:01:32;16.40;1.00
3976;DHT22;2002;48.812;9.180;2022-12-29T06:03:59;16.40;1.00
3976;DHT22;2002;48.812;9.180;2022-12-29T06:06:25;16.40;1.00
3976;DHT22;2002;48.812;9.180;2022-12-29T06:08:50;16.40;1.00
3976;DHT22;2002;48.812;9.180;2022-12-29T06:11:16;16.40;1.00
3976;DHT22;2002;48.812;9.180;2022-12-29T06:13:41;16.40;1.00
3976;DHT22;2002;48.812;9.180;2022-12-29T06:16:08;16.40;1.00
3976;DHT22;2002;48.812;9.180;2022-12-29T06:18:33;16.40;1.00
3976;DHT22;2002;48.812;9.180;2022-12-29T06:21:03;16.40;1.00
3976;DHT22;2002;48.812;9.180;2022-12-29T06:23:29;16.70;1.00
3976;DHT22;2002;48.812;9.180;2022-12-29T06:25:55;17.10;1.00
3976;DHT22;2002;48.812;9.180;2022-12-29T06:28:21;17.50;1.00
3976;DHT22;2002;48.812;9.180;2022-12-29T06:30:47;17.60;1.00
3976;DHT22;2002;48.812;9.180;2022-12-29T06:33:13;17.60;1.00
3976;DHT22;2002;48.812;9.180;2022-12-29T06:35:39;17.50;1.00
3976;DHT22;2002;48.812;9.180;2022-12-29T06:38:04;17.50;1.00
3976;DHT22;2002;48.812;9.180;2022-12-29T06:40:31;17.40;1.00
3976;DHT22;2002;48.812;9.180;2022-12-29T06:42:56;17.30;1.00
3976;DHT22;2002;48.812;9.180;2022-12-29T06:45:22;17.20;1.00
3976;DHT22;2002;48.812;9.180;2022-12-29T06:47:47;17.10;1.00
3976;DHT22;2002;48.812;9.180;2022-12-29T06:50:13;17.00;1.00
3976;DHT22;2002;48.812;9.180;2022-12-29T06:52:38;16.90;1.00
3976;DHT22;2002;48.812;9.180;2022-12-29T06:55:04;16.90;1.00
3976;DHT22;2002;48.812;9.180;2022-12-29T06:57:30;16.80;1.00
3976;DHT22;2002;48.812;9.180;2022-12-29T06:59:56;16.80;1.00
3976;DHT22;2002;48.812;9.180;2022-12-29T07:02:22;16.70;1.00
3976;DHT22;2002;48.812;9.180;2022-12-29T07:04:50;16.80;1.00
3976;DHT22;2002;48.812;9.180;2022-12-29T07:07:17;16.70;1.00
3976;DHT22;2002;48.812;9.180;2022-12-29T07:09:43;16.70;1.00
3976;DHT22;2002;48.812;9.180;2022-12-29T07:12:09;16.60;1.00
3976;DHT22;2002;48.812;9.180;2022-12-29T07:14:34;16.60;1.00
3976;DHT22;2002;48.812;9.180;2022-12-29T07:17:01;16.60;1.00
3976;DHT22;2002;48.812;9.180;2022-12-29T07:19:26;16.60;1.00
3976;DHT22;2002;48.812;9.180;2022-12-29T07:21:54;16.60;1.00
3976;DHT22;2002;48.812;9.180;2022-12-29T07:24:20;16.50;1.00
3976;DHT22;2002;48.812;9.180;2022-12-29T07:26:45;16.50;1.00
3976;DHT22;2002;48.812;9.180;2022-12-29T07:29:11;16.50;1.00
3976;DHT22;2002;48.812;9.180;2022-12-29T07:31:36;16.40;1.00
3976;DHT22;2002;48.812;9.180;2022-12-29T07:34:02;16.40;1.00
3976;DHT22;2002;48.812;9.180;2022-12-29T07:36:27;16.40;1.00
3976;DHT22;2002;48.812;9.180;2022-12-29T07:38:53;16.40;1.00
3976;DHT22;2002;48.812;9.180;2022-12-29T07:41:19;16.40;1.00
3976;DHT22;2002;48.812;9.180;2022-12-29T07:43:47;16.40;1.00
3976;DHT22;2002;48.812;9.180;2022-12-29T07:46:13;16.50;1.00
3976;DHT22;2002;48.812;9.180;2022-12-29T07:48:39;16.50;1.00
3976;DHT22;2002;48.812;9.180;2022-12-29T07:51:05;16.50;1.00
3976;DHT22;2002;48.812;9.180;2022-12-29T07:53:30;16.50;1.00
3976;DHT22;2002;48.812;9.180;2022-12-29T07:55:56;16.50;1.00
3976;DHT22;2002;48.812;9.180;2022-12-29T07:58:21;16.50;1.00
3976;DHT22;2002;48.812;9.180;2022-12-29T08:00:47;16.50;1.00
3976;DHT22;2002;48.812;9.180;2022-12-29T08:03:12;16.50;1.00
3976;DHT22;2002;48.812;9.180;2022-12-29T08:05:38;16.40;1.00
3976;DHT22;2002;48.812;9.180;2022-12-29T08:08:04;16.40;1.00
3976;DHT22;2002;48.812;9.180;2022-12-29T08:10:29;16.40;1.00
3976;DHT22;2002;48.812;9.180;2022-12-29T08:12:55;16.40;1.00
3976;DHT22;2002;48.812;9.180;2022-12-29T08:15:20;16.40;1.00
3976;DHT22;2002;48.812;9.180;2022-12-29T08:17:46;16.40;1.00
3976;DHT22;2002;48.812;9.180;2022-12-29T08:20:11;16.40;1.00
3976;DHT22;2002;48.812;9.180;2022-12-29T08:22:37;16.40;1.00
3976;DHT22;2002;48.812;9.180;2022-12-29T08:25:03;16.40;1.00
3976;DHT22;2002;48.812;9.180;2022-12-29T08:27:28;16.40;1.00
3976;DHT22;2002;48.812;9.180;2022-12-29T08:29:54;16.40;1.00
3976;DHT22;2002;48.812;9.180;2022-12-29T08:32:19;16.40;1.00
3976;DHT22;2002;48.812;9.180;2022-12-29T08:34:45;16.40;1.00
3976;DHT22;2002;48.812;9.180;2022-12-29T08:37:11;16.40;1.00
3976;DHT22;2002;48.812;9.180;2022-12-29T08:39:36;16.40;1.00
3976;DHT22;2002;48.812;9.180;2022-12-29T08:42:02;16.80;1.00
3976;DHT22;2002;48.812;9.180;2022-12-29T08:44:27;17.30;1.00
3976;DHT22;2002;48.812;9.180;2022-12-29T08:46:53;17.50;1.00
3976;DHT22;2002;48.812;9.180;2022-12-29T08:49:18;17.60;1.00
3976;DHT22;2002;48.812;9.180;2022-12-29T08:51:44;17.60;1.00
3976;DHT22;2002;48.812;9.180;2022-12-29T08:54:10;17.50;1.00
3976;DHT22;2002;48.812;9.180;2022-12-29T08:56:35;17.50;1.00
3976;DHT22;2002;48.812;9.180;2022-12-29T08:59:01;17.40;1.00
3976;DHT22;2002;48.812;9.180;2022-12-29T09:01:26;17.30;1.00
3976;DHT22;2002;48.812;9.180;2022-12-29T09:03:53;17.20;1.00
3976;DHT22;2002;48.812;9.180;2022-12-29T09:06:19;17.20;1.00
3976;DHT22;2002;48.812;9.180;2022-12-29T09:08:45;17.10;1.00
3976;DHT22;2002;48.812;9.180;2022-12-29T09:11:17;17.00;1.00
3976;DHT22;2002;48.812;9.180;2022-12-29T09:13:43;16.90;1.00
3976;DHT22;2002;48.812;9.180;2022-12-29T09:16:09;16.90;1.00
3976;DHT22;2002;48.812;9.180;2022-12-29T09:18:35;16.80;1.00
3976;DHT22;2002;48.812;9.180;2022-12-29T09:21:03;16.80;1.00
3976;DHT22;2002;48.812;9.180;2022-12-29T09:23:29;16.70;1.00
3976;DHT22;2002;48.812;9.180;2022-12-29T09:25:55;16.70;1.00
3976;DHT22;2002;48.812;9.180;2022-12-29T09:28:22;16.70;1.00
3976;DHT22;2002;48.812;9.180;2022-12-29T09:30:48;16.70;1.00
3976;DHT22;2002;48.812;9.180;2022-12-29T09:33:15;16.60;1.00
3976;DHT22;2002;48.812;9.180;2022-12-29T09:35:45;16.60;1.00
3976;DHT22;2002;48.812;9.180;2022-12-29T09:38:11;16.50;1.00
3976;DHT22;2002;48.812;9.180;2022-12-29T09:40:37;16.60;1.00
3976;DHT22;2002;48.812;9.180;2022-12-29T09:45:43;16.50;1.00
3976;DHT22;2002;48.812;9.180;2022-12-29T09:48:32;16.50;1.00
3976;DHT22;2002;48.812;9.180;2022-12-29T09:51:02;16.50;1.00
3976;DHT22;2002;48.812;9.180;2022-12-29T09:53:50;16.50;1.00
3976;DHT22;2002;48.812;9.180;2022-12-29T09:56:21;16.50;1.00
3976;DHT22;2002;48.812;9.180;2022-12-29T09:59:12;16.40;1.00
3976;DHT22;2002;48.812;9.180;2022-12-29T10:02:26;16.40;1.00
3976;DHT22;2002;48.812;9.180;2022-12-29T10:04:43;16.40;1.00
3976;DHT22;2002;48.812;9.180;2022-12-29T10:16:05;16.40;1.00
3976;DHT22;2002;48.812;9.180;2022-12-29T10:22:08;16.40;1.00
3976;DHT22;2002;48.812;9.180;2022-12-29T10:24:38;16.40;1.00
3976;DHT22;2002;48.812;9.180;2022-12-29T10:27:09;16.40;1.00
3976;DHT22;2002;48.812;9.180;2022-12-29T10:29:40;16.40;1.00
3976;DHT22;2002;48.812;9.180;2022-12-29T10:32:38;16.40;1.00
3976;DHT22;2002;48.812;9.180;2022-12-29T10:35:21;16.40;1.00
3976;DHT22;2002;48.812;9.180;2022-12-29T10:37:57;16.40;1.00
3976;DHT22;2002;48.812;9.180;2022-12-29T10:40:36;16.40;1.00
3976;DHT22;2002;48.812;9.180;2022-12-29T10:43:24;16.40;1.00
3976;DHT22;2002;48.812;9.180;2022-12-29T10:45:54;16.40;1.00
3976;DHT22;2002;48.812;9.180;2022-12-29T10:48:30;16.40;1.00
3976;DHT22;2002;48.812;9.180;2022-12-29T10:50:58;16.30;1.00
3976;DHT22;2002;48.812;9.180;2022-12-29T10:53:30;16.30;1.00
3976;DHT22;2002;48.812;9.180;2022-12-29T10:55:59;16.30;1.00
3976;DHT22;2002;48.812;9.180;2022-12-29T10:58:26;16.30;1.00
3976;DHT22;2002;48.812;9.180;2022-12-29T11:00:53;16.30;1.00
3976;DHT22;2002;48.812;9.180;2022-12-29T11:03:56;16.30;1.00
3976;DHT22;2002;48.812;9.180;2022-12-29T11:06:26;16.30;1.00
3976;DHT22;2002;48.812;9.180;2022-12-29T11:09:02;16.30;1.00
3976;DHT22;2002;48.812;9.180;2022-12-29T11:11:35;16.20;1.00
3976;DHT22;2002;48.812;9.180;2022-12-29T11:14:12;16.20;1.00
3976;DHT22;2002;48.812;9.180;2022-12-29T11:16:39;16.20;1.00
3976;DHT22;2002;48.812;9.180;2022-12-29T11:19:23;16.20;1.00
3976;DHT22;2002;48.812;9.180;2022-12-29T11:21:49;16.20;1.00
3976;DHT22;2002;48.812;9.180;2022-12-29T11:24:23;16.20;1.00
3976;DHT22;2002;48.812;9.180;2022-12-29T11:27:23;16.20;1.00
3976;DHT22;2002;48.812;9.180;2022-12-29T11:29:50;16.30;1.00
3976;DHT22;2002;48.812;9.180;2022-12-29T11:32:27;16.20;1.00
3976;DHT22;2002;48.812;9.180;2022-12-29T11:34:55;16.20;1.00
3976;DHT22;2002;48.812;9.180;2022-12-29T11:37:31;16.20;1.00
3976;DHT22;2002;48.812;9.180;2022-12-29T11:42:43;16.20;1.00
3976;DHT22;2002;48.812;9.180;2022-12-29T11:47:49;16.20;1.00
3976;DHT22;2002;48.812;9.180;2022-12-29T11:50:22;16.20;1.00
3976;DHT22;2002;48.812;9.180;2022-12-29T11:52:51;16.20;1.00
3976;DHT22;2002;48.812;9.180;2022-12-29T11:55:25;16.20;1.00
3976;DHT22;2002;48.812;9.180;2022-12-29T11:57:52;16.20;1.00
3976;DHT22;2002;48.812;9.180;2022-12-29T12:00:22;16.10;1.00
3976;DHT22;2002;48.812;9.180;2022-12-29T12:03:21;16.20;1.00
3976;DHT22;2002;48.812;9.180;2022-12-29T12:05:56;16.20;1.00
3976;DHT22;2002;48.812;9.180;2022-12-29T12:08:43;16.20;1.00
3976;DHT22;2002;48.812;9.180;2022-12-29T12:11:27;16.20;1.00
3976;DHT22;2002;48.812;9.180;2022-12-29T12:14:33;16.20;1.00
3976;DHT22;2002;48.812;9.180;2022-12-29T12:17:15;16.20;1.00
3976;DHT22;2002;48.812;9.180;2022-12-29T12:20:26;16.20;1.00
3976;DHT22;2002;48.812;9.180;2022-12-29T12:26:16;16.20;1.00
3976;DHT22;2002;48.812;9.180;2022-12-29T12:28:54;16.20;1.00
3976;DHT22;2002;48.812;9.180;2022-12-29T12:34:01;16.10;1.00
3976;DHT22;2002;48.812;9.180;2022-12-29T12:53:16;16.10;1.00
3976;DHT22;2002;48.812;9.180;2022-12-29T12:55:59;16.10;1.00
3976;DHT22;2002;48.812;9.180;2022-12-29T12:58:49;16.10;1.00
3976;DHT22;2002;48.812;9.180;2022-12-29T13:04:17;16.10;1.00
3976;DHT22;2002;48.812;9.180;2022-12-29T13:07:12;16.10;1.00
3976;DHT22;2002;48.812;9.180;2022-12-29T13:09:46;16.10;1.00
3976;DHT22;2002;48.812;9.180;2022-12-29T13:12:38;16.10;1.00
3976;DHT22;2002;48.812;9.180;2022-12-29T13:17:56;16.20;1.00
3976;DHT22;2002;48.812;9.180;2022-12-29T13:20:28;16.30;1.00
3976;DHT22;2002;48.812;9.180;2022-12-29T13:25:55;16.30;1.00
3976;DHT22;2002;48.812;9.180;2022-12-29T13:28:42;16.20;1.00
3976;DHT22;2002;48.812;9.180;2022-12-29T13:31:17;16.20;1.00
3976;DHT22;2002;48.812;9.180;2022-12-29T13:34:13;16.30;1.00
3976;DHT22;2002;48.812;9.180;2022-12-29T13:36:48;16.20;1.00
3976;DHT22;2002;48.812;9.180;2022-12-29T13:39:23;16.20;1.00
3976;DHT22;2002;48.812;9.180;2022-12-29T13:41:52;16.20;1.00
3976;DHT22;2002;48.812;9.180;2022-12-29T13:44:34;16.20;1.00
3976;DHT22;2002;48.812;9.180;2022-12-29T13:47:08;16.20;1.00
3976;DHT22;2002;48.812;9.180;2022-12-29T13:49:36;16.20;1.00
3976;DHT22;2002;48.812;9.180;2022-12-29T13:52:32;16.10;1.00
3976;DHT22;2002;48.812;9.180;2022-12-29T14:00:21;16.00;1.00
3976;DHT22;2002;48.812;9.180;2022-12-29T14:05:34;16.10;1.00
3976;DHT22;2002;48.812;9.180;2022-12-29T14:08:01;16.10;1.00
3976;DHT22;2002;48.812;9.180;2022-12-29T14:10:45;16.10;1.00
3976;DHT22;2002;48.812;9.180;2022-12-29T14:13:20;16.30;1.00
3976;DHT22;2002;48.812;9.180;2022-12-29T14:15:52;16.40;1.00
3976;DHT22;2002;48.812;9.180;2022-12-29T14:18:21;16.40;1.00
3976;DHT22;2002;48.812;9.180;2022-12-29T14:21:10;16.40;1.00
3976;DHT22;2002;48.812;9.180;2022-12-29T14:23:45;16.40;1.00
3976;DHT22;2002;48.812;9.180;2022-12-29T14:26:33;16.50;1.00
3976;DHT22;2002;48.812;9.180;2022-12-29T14:34:50;16.50;1.00
3976;DHT22;2002;48.812;9.180;2022-12-29T14:40:25;16.50;1.00
3976;DHT22;2002;48.812;9.180;2022-12-29T14:42:54;16.50;1.00
3976;DHT22;2002;48.812;9.180;2022-12-29T14:47:52;16.50;1.00
3976;DHT22;2002;48.812;9.180;2022-12-29T14:53:01;16.50;1.00
3976;DHT22;2002;48.812;9.180;2022-12-29T14:55:39;16.60;1.00
3976;DHT22;2002;48.812;9.180;2022-12-29T14:58:12;16.50;1.00
3976;DHT22;2002;48.812;9.180;2022-12-29T15:00:40;16.50;1.00
3976;DHT22;2002;48.812;9.180;2022-12-29T15:03:13;16.60;1.00
3976;DHT22;2002;48.812;9.180;2022-12-29T15:05:54;16.60;1.00
3976;DHT22;2002;48.812;9.180;2022-12-29T15:08:26;16.50;1.00
3976;DHT22;2002;48.812;9.180;2022-12-29T15:10:59;16.40;1.00
3976;DHT22;2002;48.812;9.180;2022-12-29T15:13:40;16.40;1.00
3976;DHT22;2002;48.812;9.180;2022-12-29T15:16:23;16.40;1.00
3976;DHT22;2002;48.812;9.180;2022-12-29T15:18:49;16.30;1.00
3976;DHT22;2002;48.812;9.180;2022-12-29T15:21:16;16.30;1.00
3976;DHT22;2002;48.812;9.180;2022-12-29T15:23:44;16.30;1.00
3976;DHT22;2002;48.812;9.180;2022-12-29T15:26:10;16.30;1.00
3976;DHT22;2002;48.812;9.180;2022-12-29T15:31:16;16.30;1.00
3976;DHT22;2002;48.812;9.180;2022-12-29T15:33:48;16.20;1.00
3976;DHT22;2002;48.812;9.180;2022-12-29T15:36:25;16.20;1.00
3976;DHT22;2002;48.812;9.180;2022-12-29T15:38:52;16.20;1.00
3976;DHT22;2002;48.812;9.180;2022-12-29T15:41:39;16.30;1.00
3976;DHT22;2002;48.812;9.180;2022-12-29T15:44:45;16.20;1.00
3976;DHT22;2002;48.812;9.180;2022-12-29T15:47:22;16.20;1.00
3976;DHT22;2002;48.812;9.180;2022-12-29T15:49:50;16.30;1.00
3976;DHT22;2002;48.812;9.180;2022-12-29T15:52:21;16.40;1.00
3976;DHT22;2002;48.812;9.180;2022-12-29T15:54:52;16.40;1.00
3976;DHT22;2002;48.812;9.180;2022-12-29T15:57:25;16.40;1.00
3976;DHT22;2002;48.812;9.180;2022-12-29T15:59:51;16.40;1.00
3976;DHT22;2002;48.812;9.180;2022-12-29T16:02:20;16.50;1.00
3976;DHT22;2002;48.812;9.180;2022-12-29T16:04:45;16.60;1.00
3976;DHT22;2002;48.812;9.180;2022-12-29T16:07:31;16.80;1.00
3976;DHT22;2002;48.812;9.180;2022-12-29T16:09:59;17.00;1.00
3976;DHT22;2002;48.812;9.180;2022-12-29T16:12:31;17.00;1.00
3976;DHT22;2002;48.812;9.180;2022-12-29T16:15:11;17.10;1.00
3976;DHT22;2002;48.812;9.180;2022-12-29T16:17:46;17.10;1.00
3976;DHT22;2002;48.812;9.180;2022-12-29T16:20:24;17.30;1.00
3976;DHT22;2002;48.812;9.180;2022-12-29T16:22:57;17.60;1.00
3976;DHT22;2002;48.812;9.180;2022-12-29T16:27:53;18.40;1.00
3976;DHT22;2002;48.812;9.180;2022-12-29T16:30:23;18.70;1.00
3976;DHT22;2002;48.812;9.180;2022-12-29T16:32:56;18.80;1.00
3976;DHT22;2002;48.812;9.180;2022-12-29T16:38:06;18.80;1.00
3976;DHT22;2002;48.812;9.180;2022-12-29T16:40:37;18.70;1.00
3976;DHT22;2002;48.812;9.180;2022-12-29T16:43:03;18.90;1.00
3976;DHT22;2002;48.812;9.180;2022-12-29T16:50:41;18.90;1.00
3976;DHT22;2002;48.812;9.180;2022-12-29T16:53:36;19.00;1.00
3976;DHT22;2002;48.812;9.180;2022-12-29T16:56:13;18.90;1.00
3976;DHT22;2002;48.812;9.180;2022-12-29T16:58:40;18.90;1.00
3976;DHT22;2002;48.812;9.180;2022-12-29T17:01:06;19.10;1.00
3976;DHT22;2002;48.812;9.180;2022-12-29T17:03:42;19.20;1.00
3976;DHT22;2002;48.812;9.180;2022-12-29T17:06:16;19.10;1.00
3976;DHT22;2002;48.812;9.180;2022-12-29T17:08:43;19.00;1.00
3976;DHT22;2002;48.812;9.180;2022-12-29T17:20:16;18.40;1.00
3976;DHT22;2002;48.812;9.180;2022-12-29T17:22:43;18.20;1.00
3976;DHT22;2002;48.812;9.180;2022-12-29T17:25:13;18.10;1.00
3976;DHT22;2002;48.812;9.180;2022-12-29T17:27:59;18.10;1.00
3976;DHT22;2002;48.812;9.180;2022-12-29T17:30:26;17.90;1.00
3976;DHT22;2002;48.812;9.180;2022-12-29T17:32:59;17.80;1.00
3976;DHT22;2002;48.812;9.180;2022-12-29T17:35:25;17.80;1.00
3976;DHT22;2002;48.812;9.180;2022-12-29T17:37:51;17.70;1.00
3976;DHT22;2002;48.812;9.180;2022-12-29T17:40:27;17.60;1.00
3976;DHT22;2002;48.812;9.180;2022-12-29T17:42:55;17.60;1.00
3976;DHT22;2002;48.812;9.180;2022-12-29T17:45:27;17.60;1.00
3976;DHT22;2002;48.812;9.180;2022-12-29T17:47:53;17.50;1.00
3976;DHT22;2002;48.812;9.180;2022-12-29T17:50:23;17.60;1.00
3976;DHT22;2002;48.812;9.180;2022-12-29T17:52:59;17.40;1.00
3976;DHT22;2002;48.812;9.180;2022-12-29T17:55:25;17.40;1.00
3976;DHT22;2002;48.812;9.180;2022-12-29T17:57:51;17.20;1.00
3976;DHT22;2002;48.812;9.180;2022-12-29T18:00:19;17.10;1.00
3976;DHT22;2002;48.812;9.180;2022-12-29T18:02:46;17.10;1.00
3976;DHT22;2002;48.812;9.180;2022-12-29T18:05:29;17.00;1.00
3976;DHT22;2002;48.812;9.180;2022-12-29T18:07:57;17.00;1.00
3976;DHT22;2002;48.812;9.180;2022-12-29T18:10:25;16.90;1.00
3976;DHT22;2002;48.812;9.180;2022-12-29T18:12:53;16.90;1.00
3976;DHT22;2002;48.812;9.180;2022-12-29T18:15:22;16.90;1.00
3976;DHT22;2002;48.812;9.180;2022-12-29T18:17:48;16.80;1.00
3976;DHT22;2002;48.812;9.180;2022-12-29T18:20:15;16.80;1.00
3976;DHT22;2002;48.812;9.180;2022-12-29T18:22:41;16.80;1.00
3976;DHT22;2002;48.812;9.180;2022-12-29T18:25:40;16.70;1.00
3976;DHT22;2002;48.812;9.180;2022-12-29T18:28:07;16.70;1.00
3976;DHT22;2002;48.812;9.180;2022-12-29T18:30:33;16.70;1.00
3976;DHT22;2002;48.812;9.180;2022-12-29T18:32:59;16.70;1.00
3976;DHT22;2002;48.812;9.180;2022-12-29T18:35:29;16.70;1.00
3976;DHT22;2002;48.812;9.180;2022-12-29T18:37:56;16.60;1.00
3976;DHT22;2002;48.812;9.180;2022-12-29T18:40:22;16.60;1.00
3976;DHT22;2002;48.812;9.180;2022-12-29T18:42:47;16.60;1.00
3976;DHT22;2002;48.812;9.180;2022-12-29T18:45:19;16.60;1.00